sensor_id;sensor_type;location;lat;lon;timestamp;pressure;altitude;pressure_sealevel;temperature;humidity
12759;BME280;20944;47.048;15.390;2024-03-08T00:00:32;97790.09;;;4.32;100.00
12759;BME280;20944;47.048;15.390;2024-03-08T00:03:02;97799.59;;;4.22;100.00
12759;BME280;20944;47.048;15.390;2024-03-08T00:05:31;97812.56;;;4.30;100.00
12759;BME280;20944;47.048;15.390;2024-03-08T00:08:00;97810.81;;;4.26;100.00
12759;BME280;20944;47.048;15.390;2024-03-08T00:10:28;97645.78;;;3.32;100.00
12759;BME280;20944;47.048;15.390;2024-03-08T00:12:56;97813.44;;;4.18;100.00
12759;BME280;20944;47.048;15.390;2024-03-08T00:15:26;97817.75;;;4.16;100.00
12759;BME280;20944;47.048;15.390;2024-03-08T00:17:56;97814.28;;;4.03;100.00
12759;BME280;20944;47.048;15.390;2024-03-08T00:20:26;97809.09;;;4.02;100.00
12759;BME280;20944;47.048;15.390;2024-03-08T00:22:54;97816.88;;;3.93;100.00
12759;BME280;20944;47.048;15.390;2024-03-08T00:25:24;97813.41;;;3.91;100.00
12759;BME280;20944;47.048;15.390;2024-03-08T00:27:53;97777.94;;;3.62;100.00
12759;BME280;20944;47.048;15.390;2024-03-08T00:30:23;97822.03;;;3.77;100.00
12759;BME280;20944;47.048;15.390;2024-03-08T00:32:52;97812.50;;;3.75;100.00
12759;BME280;20944;47.048;15.390;2024-03-08T00:35:20;97809.06;;;3.79;100.00
12759;BME280;20944;47.048;15.390;2024-03-08T00:37:50;97787.44;;;3.66;100.00
12759;BME280;20944;47.048;15.390;2024-03-08T00:40:19;97806.44;;;3.68;100.00
12759;BME280;20944;47.048;15.390;2024-03-08T00:42:47;97803.00;;;3.68;100.00
12759;BME280;20944;47.048;15.390;2024-03-08T00:45:15;97807.31;;;3.73;100.00
12759;BME280;20944;47.048;15.390;2024-03-08T00:47:44;97790.06;;;3.65;100.00
12759;BME280;20944;47.048;15.390;2024-03-08T00:50:12;97776.22;;;3.61;100.00
12759;BME280;20944;47.048;15.390;2024-03-08T00:52:40;97797.84;;;3.78;100.00
12759;BME280;20944;47.048;15.390;2024-03-08T00:55:10;97786.63;;;3.90;100.00
12759;BME280;20944;47.048;15.390;2024-03-08T00:57:39;97794.41;;;3.96;100.00
12759;BME280;20944;47.048;15.390;2024-03-08T01:00:08;97784.88;;;3.86;100.00
12759;BME280;20944;47.048;15.390;2024-03-08T01:02:39;97773.63;;;3.63;100.00
12759;BME280;20944;47.048;15.390;2024-03-08T01:05:08;97774.53;;;3.78;100.00
12759;BME280;20944;47.048;15.390;2024-03-08T01:07:36;97789.19;;;3.89;100.00
12759;BME280;20944;47.048;15.390;2024-03-08T01:10:05;97768.44;;;3.67;100.00
12759;BME280;20944;47.048;15.390;2024-03-08T01:12:38;97790.94;;;3.77;100.00
12759;BME280;20944;47.048;15.390;2024-03-08T01:15:07;97765.84;;;3.54;100.00
12759;BME280;20944;47.048;15.390;2024-03-08T01:17:36;97789.16;;;3.63;100.00
12759;BME280;20944;47.048;15.390;2024-03-08T01:20:07;97737.31;;;3.43;100.00
12759;BME280;20944;47.048;15.390;2024-03-08T01:22:38;97784.00;;;3.67;100.00
12759;BME280;20944;47.048;15.390;2024-03-08T01:25:07;97773.63;;;3.52;100.00
12759;BME280;20944;47.048;15.390;2024-03-08T01:27:35;97780.53;;;3.62;100.00
12759;BME280;20944;47.048;15.390;2024-03-08T01:30:06;97774.50;;;3.69;100.00
12759;BME280;20944;47.048;15.390;2024-03-08T01:32:37;97777.09;;;3.72;100.00
12759;BME280;20944;47.048;15.390;2024-03-08T01:35:06;97777.97;;;3.77;100.00
12759;BME280;20944;47.048;15.390;2024-03-08T01:37:36;97761.56;;;3.65;100.00
12759;BME280;20944;47.048;15.390;2024-03-08T01:40:06;97655.25;;;2.97;100.00
12759;BME280;20944;47.048;15.390;2024-03-08T01:42:35;97770.16;;;3.62;100.00
12759;BME280;20944;47.048;15.390;2024-03-08T01:45:07;97779.66;;;3.53;100.00
12759;BME280;20944;47.048;15.390;2024-03-08T01:47:35;97750.25;;;3.29;100.00
12759;BME280;20944;47.048;15.390;2024-03-08T01:50:04;97648.28;;;2.83;100.00
12759;BME280;20944;47.048;15.390;2024-03-08T01:52:34;97759.78;;;3.51;100.00
12759;BME280;20944;47.048;15.390;2024-03-08T01:55:05;97763.25;;;3.57;100.00
12759;BME280;20944;47.048;15.390;2024-03-08T01:57:34;97758.09;;;3.60;100.00
12759;BME280;20944;47.048;15.390;2024-03-08T02:00:07;97767.56;;;3.53;100.00
12759;BME280;20944;47.048;15.390;2024-03-08T02:02:37;97757.16;;;3.44;100.00
12759;BME280;20944;47.048;15.390;2024-03-08T02:05:10;97709.59;;;3.04;100.00
12759;BME280;20944;47.048;15.390;2024-03-08T02:07:40;97765.75;;;3.21;100.00
12759;BME280;20944;47.048;15.390;2024-03-08T02:10:10;97766.59;;;3.14;100.00
12759;BME280;20944;47.048;15.390;2024-03-08T02:12:39;97764.78;;;3.01;100.00
12759;BME280;20944;47.048;15.390;2024-03-08T02:15:09;97769.09;;;2.90;100.00
12759;BME280;20944;47.048;15.390;2024-03-08T02:17:37;97762.13;;;2.83;100.00
12759;BME280;20944;47.048;15.390;2024-03-08T02:20:06;97704.16;;;2.42;100.00
12759;BME280;20944;47.048;15.390;2024-03-08T02:22:38;97775.94;;;2.88;100.00
12759;BME280;20944;47.048;15.390;2024-03-08T02:25:08;97764.69;;;2.83;100.00
12759;BME280;20944;47.048;15.390;2024-03-08T02:27:37;97772.50;;;2.86;100.00
12759;BME280;20944;47.048;15.390;2024-03-08T02:30:06;97758.69;;;2.85;100.00
12759;BME280;20944;47.048;15.390;2024-03-08T02:32:35;97779.38;;;2.82;100.00
12759;BME280;20944;47.048;15.390;2024-03-08T02:35:04;97791.47;;;2.83;100.00
12759;BME280;20944;47.048;15.390;2024-03-08T02:37:33;97757.81;;;2.79;100.00
12759;BME280;20944;47.048;15.390;2024-03-08T02:40:03;97762.94;;;2.76;100.00
12759;BME280;20944;47.048;15.390;2024-03-08T02:42:32;97763.75;;;2.64;100.00
12759;BME280;20944;47.048;15.390;2024-03-08T02:44:59;97771.59;;;2.78;100.00
12759;BME280;20944;47.048;15.390;2024-03-08T02:47:27;97776.78;;;2.82;100.00
12759;BME280;20944;47.048;15.390;2024-03-08T02:49:58;97772.44;;;2.75;100.00
12759;BME280;20944;47.048;15.390;2024-03-08T02:52:28;97769.06;;;2.84;100.00
12759;BME280;20944;47.048;15.390;2024-03-08T02:54:56;97665.28;;;2.21;100.00
12759;BME280;20944;47.048;15.390;2024-03-08T02:57:26;97755.22;;;2.80;100.00
12759;BME280;20944;47.048;15.390;2024-03-08T02:59:54;97768.22;;;2.91;100.00
12759;BME280;20944;47.048;15.390;2024-03-08T03:02:22;97737.09;;;2.82;100.00
12759;BME280;20944;47.048;15.390;2024-03-08T03:04:51;97758.81;;;3.11;100.00
12759;BME280;20944;47.048;15.390;2024-03-08T03:07:19;97757.06;;;3.13;100.00
12759;BME280;20944;47.048;15.390;2024-03-08T03:09:47;97770.94;;;3.21;100.00
12759;BME280;20944;47.048;15.390;2024-03-08T03:12:15;97760.56;;;3.23;100.00
12759;BME280;20944;47.048;15.390;2024-03-08T03:14:46;97710.44;;;2.96;100.00
12759;BME280;20944;47.048;15.390;2024-03-08T03:17:14;97758.81;;;3.19;100.00
12759;BME280;20944;47.048;15.390;2024-03-08T03:19:43;97757.16;;;3.29;100.00
12759;BME280;20944;47.048;15.390;2024-03-08T03:22:11;97706.16;;;3.06;100.00
12759;BME280;20944;47.048;15.390;2024-03-08T03:24:39;97741.59;;;3.22;100.00
12759;BME280;20944;47.048;15.390;2024-03-08T03:27:08;97758.88;;;3.36;100.00
12759;BME280;20944;47.048;15.390;2024-03-08T03:29:39;97755.44;;;3.34;100.00
12759;BME280;20944;47.048;15.390;2024-03-08T03:32:10;97760.59;;;3.31;100.00
12759;BME280;20944;47.048;15.390;2024-03-08T03:34:39;97758.88;;;3.30;100.00
12759;BME280;20944;47.048;15.390;2024-03-08T03:37:07;97716.50;;;3.05;100.00
12759;BME280;20944;47.048;15.390;2024-03-08T03:39:39;97757.13;;;3.30;100.00
12759;BME280;20944;47.048;15.390;2024-03-08T03:42:16;97752.81;;;3.24;100.00
12759;BME280;20944;47.048;15.390;2024-03-08T03:44:44;97762.25;;;3.09;100.00
12759;BME280;20944;47.048;15.390;2024-03-08T03:47:15;97664.50;;;2.40;100.00
12759;BME280;20944;47.048;15.390;2024-03-08T03:49:44;97758.72;;;2.93;100.00
12759;BME280;20944;47.048;15.390;2024-03-08T03:52:12;97760.44;;;2.89;100.00
12759;BME280;20944;47.048;15.390;2024-03-08T03:54:40;97745.69;;;2.75;100.00
12759;BME280;20944;47.048;15.390;2024-03-08T03:57:09;97760.41;;;2.88;100.00
12759;BME280;20944;47.048;15.390;2024-03-08T03:59:37;97751.78;;;2.77;100.00
12759;BME280;20944;47.048;15.390;2024-03-08T04:02:06;97738.81;;;2.74;100.00
12759;BME280;20944;47.048;15.390;2024-03-08T04:04:35;97761.38;;;3.02;100.00
12759;BME280;20944;47.048;15.390;2024-03-08T04:07:04;97729.28;;;2.69;100.00
12759;BME280;20944;47.048;15.390;2024-03-08T04:09:34;97765.59;;;2.86;100.00
12759;BME280;20944;47.048;15.390;2024-03-08T04:12:03;97743.97;;;2.74;100.00
12759;BME280;20944;47.048;15.390;2024-03-08T04:14:31;97766.44;;;2.78;100.00
12759;BME280;20944;47.048;15.390;2024-03-08T04:16:59;97746.56;;;2.70;100.00
12759;BME280;20944;47.048;15.390;2024-03-08T04:19:29;97713.72;;;2.54;100.00
12759;BME280;20944;47.048;15.390;2024-03-08T04:21:58;97455.38;;;1.02;100.00
12759;BME280;20944;47.048;15.390;2024-03-08T04:24:27;97762.16;;;2.84;100.00
12759;BME280;20944;47.048;15.390;2024-03-08T04:26:57;97753.50;;;2.81;100.00
12759;BME280;20944;47.048;15.390;2024-03-08T04:29:26;97773.38;;;2.85;100.00
12759;BME280;20944;47.048;15.390;2024-03-08T04:31:54;97769.94;;;2.90;100.00
12759;BME280;20944;47.048;15.390;2024-03-08T04:34:22;97753.44;;;2.67;100.00
12759;BME280;20944;47.048;15.390;2024-03-08T04:36:51;97758.59;;;2.70;100.00
12759;BME280;20944;47.048;15.390;2024-03-08T04:39:21;97774.19;;;2.79;100.00
12759;BME280;20944;47.048;15.390;2024-03-08T04:41:49;97750.81;;;2.61;100.00
12759;BME280;20944;47.048;15.390;2024-03-08T04:44:18;97764.72;;;2.81;100.00
12759;BME280;20944;47.048;15.390;2024-03-08T04:46:46;97768.19;;;2.85;100.00
12759;BME280;20944;47.048;15.390;2024-03-08T04:49:15;97767.34;;;2.90;100.00
12759;BME280;20944;47.048;15.390;2024-03-08T04:51:43;97760.44;;;2.94;100.00
12759;BME280;20944;47.048;15.390;2024-03-08T04:54:12;97768.25;;;3.02;100.00
12759;BME280;20944;47.048;15.390;2024-03-08T04:56:42;97765.69;;;3.08;100.00
12759;BME280;20944;47.048;15.390;2024-03-08T04:59:11;97766.53;;;2.97;100.00
12759;BME280;20944;47.048;15.390;2024-03-08T05:01:40;97735.34;;;2.72;100.00
12759;BME280;20944;47.048;15.390;2024-03-08T05:04:08;97761.28;;;2.88;100.00
12759;BME280;20944;47.048;15.390;2024-03-08T05:06:36;97756.88;;;2.67;100.00
12759;BME280;20944;47.048;15.390;2024-03-08T05:09:05;97747.31;;;2.57;100.00
12759;BME280;20944;47.048;15.390;2024-03-08T05:11:42;97756.84;;;2.60;100.00
12759;BME280;20944;47.048;15.390;2024-03-08T05:14:11;97709.25;;;2.30;100.00
12759;BME280;20944;47.048;15.390;2024-03-08T05:16:44;97767.16;;;2.57;100.00
12759;BME280;20944;47.048;15.390;2024-03-08T05:19:16;97764.44;;;2.37;100.00
12759;BME280;20944;47.048;15.390;2024-03-08T05:21:45;97770.44;;;2.31;100.00
12759;BME280;20944;47.048;15.390;2024-03-08T05:24:13;97775.66;;;2.33;100.00
12759;BME280;20944;47.048;15.390;2024-03-08T05:26:45;97768.72;;;2.32;100.00
12759;BME280;20944;47.048;15.390;2024-03-08T05:29:14;97706.41;;;1.94;100.00
12759;BME280;20944;47.048;15.390;2024-03-08T05:31:47;97774.78;;;2.34;100.00
12759;BME280;20944;47.048;15.390;2024-03-08T05:34:15;97780.09;;;2.52;100.00
12759;BME280;20944;47.048;15.390;2024-03-08T05:36:44;97769.69;;;2.46;100.00
12759;BME280;20944;47.048;15.390;2024-03-08T05:39:13;97786.97;;;2.53;100.00
12759;BME280;20944;47.048;15.390;2024-03-08T05:41:42;97774.84;;;2.44;100.00
12759;BME280;20944;47.048;15.390;2024-03-08T05:44:12;97786.06;;;2.48;100.00
12759;BME280;20944;47.048;15.390;2024-03-08T05:46:41;97767.91;;;2.36;100.00
12759;BME280;20944;47.048;15.390;2024-03-08T05:49:10;97783.50;;;2.47;100.00
12759;BME280;20944;47.048;15.390;2024-03-08T05:51:40;97785.25;;;2.57;100.00
12759;BME280;20944;47.048;15.390;2024-03-08T05:54:10;97767.97;;;2.48;100.00
12759;BME280;20944;47.048;15.390;2024-03-08T05:56:43;97784.47;;;2.70;100.00
12759;BME280;20944;47.048;15.390;2024-03-08T05:59:13;97746.50;;;2.60;100.00
12759;BME280;20944;47.048;15.390;2024-03-08T06:01:41;97736.22;;;2.70;100.00
12759;BME280;20944;47.048;15.390;2024-03-08T06:04:10;97766.53;;;3.01;100.00
12759;BME280;20944;47.048;15.390;2024-03-08T06:06:39;97774.41;;;3.28;100.00
12759;BME280;20944;47.048;15.390;2024-03-08T06:09:08;97773.56;;;3.35;100.00
12759;BME280;20944;47.048;15.390;2024-03-08T06:11:39;97773.56;;;3.43;100.00
12759;BME280;20944;47.048;15.390;2024-03-08T06:14:09;97755.44;;;3.41;100.00
12759;BME280;20944;47.048;15.390;2024-03-08T06:16:39;97755.47;;;3.58;100.00
12759;BME280;20944;47.048;15.390;2024-03-08T06:19:07;97752.94;;;3.78;100.00
12759;BME280;20944;47.048;15.390;2024-03-08T06:21:35;97778.84;;;4.13;100.00
12759;BME280;20944;47.048;15.390;2024-03-08T06:24:04;97750.31;;;4.21;100.00
12759;BME280;20944;47.048;15.390;2024-03-08T06:26:32;97699.34;;;4.14;100.00
12759;BME280;20944;47.048;15.390;2024-03-08T06:29:04;97722.63;;;4.38;100.00
12759;BME280;20944;47.048;15.390;2024-03-08T06:31:34;97781.34;;;4.91;100.00
12759;BME280;20944;47.048;15.390;2024-03-08T06:34:07;97763.16;;;4.90;100.00
12759;BME280;20944;47.048;15.390;2024-03-08T06:36:36;97764.88;;;4.95;100.00
12759;BME280;20944;47.048;15.390;2024-03-08T06:39:05;97782.13;;;5.11;100.00
12759;BME280;20944;47.048;15.390;2024-03-08T06:41:37;97734.56;;;4.96;100.00
12759;BME280;20944;47.048;15.390;2024-03-08T06:44:05;97787.19;;;5.42;100.00
12759;BME280;20944;47.048;15.390;2024-03-08T06:46:35;97766.38;;;5.50;100.00
12759;BME280;20944;47.048;15.390;2024-03-08T06:49:03;97746.47;;;5.47;100.00
12759;BME280;20944;47.048;15.390;2024-03-08T06:51:33;97788.72;;;5.81;100.00
12759;BME280;20944;47.048;15.390;2024-03-08T06:54:01;97773.16;;;5.71;100.00
12759;BME280;20944;47.048;15.390;2024-03-08T06:56:35;97792.22;;;5.74;100.00
12759;BME280;20944;47.048;15.390;2024-03-08T06:59:04;97753.44;;;5.37;100.00
12759;BME280;20944;47.048;15.390;2024-03-08T07:01:33;97771.63;;;5.37;100.00
12759;BME280;20944;47.048;15.390;2024-03-08T07:04:04;97777.69;;;5.41;100.00
12759;BME280;20944;47.048;15.390;2024-03-08T07:06:34;97711.25;;;4.93;100.00
12759;BME280;20944;47.048;15.390;2024-03-08T07:09:03;97801.03;;;5.47;100.00
12759;BME280;20944;47.048;15.390;2024-03-08T07:11:31;97796.69;;;5.46;100.00
12759;BME280;20944;47.048;15.390;2024-03-08T07:14:01;97785.47;;;5.39;100.00
12759;BME280;20944;47.048;15.390;2024-03-08T07:16:32;97797.59;;;5.44;100.00
12759;BME280;20944;47.048;15.390;2024-03-08T07:19:01;97814.06;;;5.38;100.00
12759;BME280;20944;47.048;15.390;2024-03-08T07:21:30;97794.16;;;5.32;100.00
12759;BME280;20944;47.048;15.390;2024-03-08T07:23:59;97791.56;;;5.32;100.00
12759;BME280;20944;47.048;15.390;2024-03-08T07:26:45;97798.47;;;5.41;100.00
12759;BME280;20944;47.048;15.390;2024-03-08T07:29:16;97777.66;;;5.39;100.00
12759;BME280;20944;47.048;15.390;2024-03-08T07:31:44;97789.75;;;5.54;100.00
12759;BME280;20944;47.048;15.390;2024-03-08T07:34:22;97796.59;;;5.67;100.00
12759;BME280;20944;47.048;15.390;2024-03-08T07:36:50;97785.25;;;5.81;100.00
12759;BME280;20944;47.048;15.390;2024-03-08T07:39:20;97787.72;;;6.04;100.00
12759;BME280;20944;47.048;15.390;2024-03-08T07:41:50;97795.31;;;6.28;100.00
12759;BME280;20944;47.048;15.390;2024-03-08T07:44:19;97788.34;;;6.33;100.00
12759;BME280;20944;47.048;15.390;2024-03-08T07:46:47;97801.34;;;6.35;100.00
12759;BME280;20944;47.048;15.390;2024-03-08T07:49:15;97807.50;;;6.26;100.00
12759;BME280;20944;47.048;15.390;2024-03-08T07:51:44;97805.81;;;6.16;100.00
12759;BME280;20944;47.048;15.390;2024-03-08T07:54:13;97721.28;;;5.55;100.00
12759;BME280;20944;47.048;15.390;2024-03-08T07:56:43;97810.31;;;5.94;100.00
12759;BME280;20944;47.048;15.390;2024-03-08T07:59:11;97772.38;;;5.58;100.00
12759;BME280;20944;47.048;15.390;2024-03-08T08:01:39;97800.97;;;5.58;100.00
12759;BME280;20944;47.048;15.390;2024-03-08T08:04:08;97764.78;;;5.24;100.00
12759;BME280;20944;47.048;15.390;2024-03-08T08:06:39;97814.94;;;5.37;100.00
12759;BME280;20944;47.048;15.390;2024-03-08T08:09:08;97792.53;;;5.10;100.00
12759;BME280;20944;47.048;15.390;2024-03-08T08:11:42;97817.63;;;5.16;100.00
12759;BME280;20944;47.048;15.390;2024-03-08T08:14:11;97815.03;;;5.02;100.00
12759;BME280;20944;47.048;15.390;2024-03-08T08:16:39;97802.94;;;4.96;100.00
12759;BME280;20944;47.048;15.390;2024-03-08T08:19:09;97812.50;;;4.93;100.00
12759;BME280;20944;47.048;15.390;2024-03-08T08:21:41;97815.06;;;4.90;100.00
12759;BME280;20944;47.048;15.390;2024-03-08T08:24:09;97819.41;;;4.87;100.00
12759;BME280;20944;47.048;15.390;2024-03-08T08:26:37;97753.75;;;4.38;100.00
12759;BME280;20944;47.048;15.390;2024-03-08T08:29:08;97822.06;;;4.72;100.00
12759;BME280;20944;47.048;15.390;2024-03-08T08:31:36;97819.47;;;4.72;100.00
12759;BME280;20944;47.048;15.390;2024-03-08T08:34:04;97800.44;;;4.59;100.00
12759;BME280;20944;47.048;15.390;2024-03-08T08:36:33;97818.59;;;4.64;100.00
12759;BME280;20944;47.048;15.390;2024-03-08T08:39:02;97803.03;;;4.58;100.00
12759;BME280;20944;47.048;15.390;2024-03-08T08:41:31;97813.38;;;4.75;100.00
12759;BME280;20944;47.048;15.390;2024-03-08T08:43:59;97794.34;;;4.82;100.00
12759;BME280;20944;47.048;15.390;2024-03-08T08:46:43;97801.25;;;4.87;100.00
12759;BME280;20944;47.048;15.390;2024-03-08T08:49:11;97809.03;;;4.97;100.00
12759;BME280;20944;47.048;15.390;2024-03-08T08:51:41;97742.47;;;4.62;100.00
12759;BME280;20944;47.048;15.390;2024-03-08T08:54:10;97803.78;;;5.01;100.00
12759;BME280;20944;47.048;15.390;2024-03-08T08:56:41;97810.69;;;5.16;100.00
12759;BME280;20944;47.048;15.390;2024-03-08T08:59:10;97815.81;;;5.27;100.00
12759;BME280;20944;47.048;15.390;2024-03-08T09:01:40;97814.06;;;5.33;100.00
12759;BME280;20944;47.048;15.390;2024-03-08T09:04:10;97811.44;;;5.39;100.00
12759;BME280;20944;47.048;15.390;2024-03-08T09:06:39;97811.41;;;5.46;100.00
12759;BME280;20944;47.048;15.390;2024-03-08T09:09:09;97809.63;;;5.57;100.00
12759;BME280;20944;47.048;15.390;2024-03-08T09:11:37;97800.94;;;5.67;100.00
12759;BME280;20944;47.048;15.390;2024-03-08T09:14:08;97798.28;;;5.72;100.00
12759;BME280;20944;47.048;15.390;2024-03-08T09:16:39;97803.50;;;5.73;100.00
12759;BME280;20944;47.048;15.390;2024-03-08T09:19:07;97798.25;;;5.79;100.00
12759;BME280;20944;47.048;15.390;2024-03-08T09:21:39;97794.75;;;5.92;100.00
12759;BME280;20944;47.048;15.390;2024-03-08T09:24:07;97798.94;;;6.12;100.00
12759;BME280;20944;47.048;15.390;2024-03-08T09:26:36;97799.69;;;6.26;100.00
12759;BME280;20944;47.048;15.390;2024-03-08T09:29:04;97788.34;;;6.33;100.00
12759;BME280;20944;47.048;15.390;2024-03-08T09:31:33;97801.22;;;6.50;100.00
12759;BME280;20944;47.048;15.390;2024-03-08T09:34:02;97797.66;;;6.59;100.00
12759;BME280;20944;47.048;15.390;2024-03-08T09:36:30;97799.41;;;6.58;100.00
12759;BME280;20944;47.048;15.390;2024-03-08T09:39:01;97796.91;;;6.46;100.00
12759;BME280;20944;47.048;15.390;2024-03-08T09:41:29;97791.72;;;6.47;100.00
12759;BME280;20944;47.048;15.390;2024-03-08T09:43:58;97790.75;;;6.53;100.00
12759;BME280;20944;47.048;15.390;2024-03-08T09:46:27;97786.38;;;6.58;100.00
12759;BME280;20944;47.048;15.390;2024-03-08T09:48:56;97791.50;;;6.69;100.00
12759;BME280;20944;47.048;15.390;2024-03-08T09:51:28;97784.50;;;6.72;100.00
12759;BME280;20944;47.048;15.390;2024-03-08T09:53:57;97768.09;;;6.64;100.00
12759;BME280;20944;47.048;15.390;2024-03-08T09:56:32;97766.31;;;6.69;100.00
12759;BME280;20944;47.048;15.390;2024-03-08T09:59:01;97788.81;;;6.76;100.00
12759;BME280;20944;47.048;15.390;2024-03-08T10:01:59;97790.50;;;6.82;100.00
12759;BME280;20944;47.048;15.390;2024-03-08T10:04:29;97790.50;;;6.82;100.00
12759;BME280;20944;47.048;15.390;2024-03-08T10:07:00;97792.13;;;6.92;100.00
12759;BME280;20944;47.048;15.390;2024-03-08T10:09:28;97791.22;;;6.98;99.68
12759;BME280;20944;47.048;15.390;2024-03-08T10:11:58;97776.38;;;7.03;95.99
12759;BME280;20944;47.048;15.390;2024-03-08T10:14:27;97782.88;;;7.39;96.10
12759;BME280;20944;47.048;15.390;2024-03-08T10:16:57;97791.31;;;7.60;93.64
12759;BME280;20944;47.048;15.390;2024-03-08T10:19:27;97781.50;;;7.77;91.21
12759;BME280;20944;47.048;15.390;2024-03-08T10:21:57;97768.25;;;7.91;90.16
12759;BME280;20944;47.048;15.390;2024-03-08T10:24:26;97778.41;;;8.09;89.83
12759;BME280;20944;47.048;15.390;2024-03-08T10:26:59;97781.78;;;8.17;87.59
12759;BME280;20944;47.048;15.390;2024-03-08T10:29:33;97778.28;;;8.17;83.01
12759;BME280;20944;47.048;15.390;2024-03-08T10:32:01;97778.34;;;8.14;85.85
12759;BME280;20944;47.048;15.390;2024-03-08T10:34:32;97775.94;;;8.01;84.75
12759;BME280;20944;47.048;15.390;2024-03-08T10:37:03;97766.16;;;7.57;81.52
12759;BME280;20944;47.048;15.390;2024-03-08T10:39:35;97763.75;;;7.40;83.82
12759;BME280;20944;47.048;15.390;2024-03-08T10:42:11;97780.16;;;7.50;88.81
12759;BME280;20944;47.048;15.390;2024-03-08T10:44:51;97700.63;;;7.18;89.42
12759;BME280;20944;47.048;15.390;2024-03-08T10:47:25;97775.53;;;7.70;89.48
12759;BME280;20944;47.048;15.390;2024-03-08T10:50:05;97777.91;;;7.84;86.79
12759;BME280;20944;47.048;15.390;2024-03-08T10:52:37;97775.25;;;7.89;80.84
12759;BME280;20944;47.048;15.390;2024-03-08T10:55:07;97757.00;;;7.89;82.38
12759;BME280;20944;47.048;15.390;2024-03-08T10:57:41;97770.31;;;8.27;85.32
12759;BME280;20944;47.048;15.390;2024-03-08T11:00:12;97768.34;;;8.42;80.34
12759;BME280;20944;47.048;15.390;2024-03-08T11:02:43;97752.72;;;8.40;77.70
12759;BME280;20944;47.048;15.390;2024-03-08T11:05:31;97762.16;;;8.47;74.65
12759;BME280;20944;47.048;15.390;2024-03-08T11:08:03;97756.03;;;8.48;78.60
12759;BME280;20944;47.048;15.390;2024-03-08T11:10:31;97737.63;;;8.57;77.82
12759;BME280;20944;47.048;15.390;2024-03-08T11:13:02;97691.09;;;8.28;76.94
12759;BME280;20944;47.048;15.390;2024-03-08T11:15:30;97742.03;;;8.55;75.85
12759;BME280;20944;47.048;15.390;2024-03-08T11:17:59;97745.66;;;8.45;74.69
12759;BME280;20944;47.048;15.390;2024-03-08T11:20:28;97753.63;;;8.37;75.32
12759;BME280;20944;47.048;15.390;2024-03-08T11:23:00;97742.66;;;8.16;78.77
12759;BME280;20944;47.048;15.390;2024-03-08T11:25:35;97741.84;;;8.12;77.97
12759;BME280;20944;47.048;15.390;2024-03-08T11:28:10;97734.16;;;8.03;77.11
12759;BME280;20944;47.048;15.390;2024-03-08T11:31:22;97733.53;;;7.87;81.45
12759;BME280;20944;47.048;15.390;2024-03-08T11:33:50;97733.47;;;7.93;79.13
12759;BME280;20944;47.048;15.390;2024-03-08T11:36:22;97729.91;;;7.96;78.44
12759;BME280;20944;47.048;15.390;2024-03-08T11:38:52;97721.31;;;7.91;77.16
12759;BME280;20944;47.048;15.390;2024-03-08T11:41:23;97717.91;;;7.87;77.31
12759;BME280;20944;47.048;15.390;2024-03-08T11:44:03;97713.41;;;7.95;80.81
12759;BME280;20944;47.048;15.390;2024-03-08T11:46:37;97700.88;;;8.16;76.01
12759;BME280;20944;47.048;15.390;2024-03-08T11:49:09;97711.84;;;8.39;74.67
12759;BME280;20944;47.048;15.390;2024-03-08T11:51:38;97704.88;;;8.38;74.09
12759;BME280;20944;47.048;15.390;2024-03-08T11:54:11;97705.09;;;8.24;75.26
12759;BME280;20944;47.048;15.390;2024-03-08T11:56:40;97699.84;;;8.26;78.53
12759;BME280;20944;47.048;15.390;2024-03-08T11:59:12;97685.75;;;8.34;77.00
12759;BME280;20944;47.048;15.390;2024-03-08T12:01:41;97686.16;;;8.61;75.89
12759;BME280;20944;47.048;15.390;2024-03-08T12:04:12;97689.75;;;8.57;74.81
12759;BME280;20944;47.048;15.390;2024-03-08T12:06:41;97686.69;;;8.32;73.26
12759;BME280;20944;47.048;15.390;2024-03-08T12:09:09;97686.69;;;8.32;74.72
12759;BME280;20944;47.048;15.390;2024-03-08T12:11:38;97676.41;;;8.24;77.11
12759;BME280;20944;47.048;15.390;2024-03-08T12:14:07;97683.38;;;8.24;76.43
12759;BME280;20944;47.048;15.390;2024-03-08T12:16:37;97677.28;;;8.22;76.38
12759;BME280;20944;47.048;15.390;2024-03-08T12:19:06;97652.72;;;7.84;77.55
12759;BME280;20944;47.048;15.390;2024-03-08T12:21:36;97660.16;;;7.53;81.21
12759;BME280;20944;47.048;15.390;2024-03-08T12:24:05;97663.63;;;7.53;84.03
12759;BME280;20944;47.048;15.390;2024-03-08T12:26:36;97681.56;;;7.75;85.17
12759;BME280;20944;47.048;15.390;2024-03-08T12:29:15;97670.00;;;7.90;80.53
12759;BME280;20944;47.048;15.390;2024-03-08T12:31:46;97674.81;;;8.14;78.25
12759;BME280;20944;47.048;15.390;2024-03-08T12:34:15;97655.44;;;8.27;79.42
12759;BME280;20944;47.048;15.390;2024-03-08T12:36:47;97637.44;;;8.61;78.94
12759;BME280;20944;47.048;15.390;2024-03-08T12:39:18;97656.56;;;9.04;74.63
12759;BME280;20944;47.048;15.390;2024-03-08T12:41:49;97623.09;;;9.21;74.99
12759;BME280;20944;47.048;15.390;2024-03-08T12:44:19;97649.41;;;9.52;70.19
12759;BME280;20944;47.048;15.390;2024-03-08T12:46:50;97573.28;;;8.88;70.91
12759;BME280;20944;47.048;15.390;2024-03-08T12:49:20;97639.13;;;9.06;73.55
12759;BME280;20944;47.048;15.390;2024-03-08T12:51:50;97651.94;;;8.76;74.73
12759;BME280;20944;47.048;15.390;2024-03-08T12:54:20;97653.22;;;8.55;76.98
12759;BME280;20944;47.048;15.390;2024-03-08T12:56:51;97653.31;;;8.51;77.32
12759;BME280;20944;47.048;15.390;2024-03-08T12:59:21;97643.13;;;8.35;80.27
12759;BME280;20944;47.048;15.390;2024-03-08T13:01:52;97643.25;;;8.28;81.28
12759;BME280;20944;47.048;15.390;2024-03-08T13:04:21;97644.22;;;8.22;80.62
12759;BME280;20944;47.048;15.390;2024-03-08T13:06:49;97648.19;;;7.95;79.13